Terminal Aerodrome Forecast
Issued by NWS

Home | Current Version | Previous Version | Text Only | Print | Product List | Glossary On
Versions: 1 2 3 4 5 6 7 8 9 10 11 12 13 14 15 16 17 18
000
FTUS41 KPBZ 301830 AAA
TAFMGW
TAF AMD
KMGW 301830Z 3019/0118 10009KT P6SM VCSH BKN025 OVC070
     FM010300 10010G21KT P6SM VCSH BKN025
     FM010800 12004KT P6SM VCSH BKN025
     FM011100 12004KT P6SM BKN008
     FM011500 15004KT P6SM SCT025=

USA.gov is the U.S. government's official web portal to all federal, state and local government web resources and services.